aviador You're here:

YABA Decoded Metar

in
Report Time2017-12-15 14:00:00
UTC Time2017-12-15 14:09:59
Flight Rules mvfr MVFR
WindCalm
Visibility9999 m
Phenomena:N/A
Clouds:Overcast 022 Hf
Expected CloudBase > 400 ft AGL from Temp-Dew spread
Ceiling2,200 ft
Temp15°C
Dew Point14°C (94% RH)
QNH1012 hPa
Raw Report
METAR YABA 151400Z AUTO 00000KT 9999 // OVC022 15/14 Q1012=

Extra information for YABA:More info

Social comments